Time;durP1;ratioP1;P1;durP2;ratioP2;P2;SDS_P1;SDS_P2;PMS_P1;PMS_P2;Temp;Humidity;BMP_temperature;BMP_pressure;BME280_temperature;BME280_humidity;BME280_pressure;Samples;Min_cycle;Max_cycle;Signal;HPM_P1;HPM_P2
2023/03/14 00:01:15;;;;;;;5.68;3.00;;;11.60;53.60;;;;;;4996545;28;20408;-73
2023/03/14 00:03:42;;;;;;;5.45;3.13;;;11.60;53.90;;;;;;4996336;28;20034;-73
2023/03/14 00:06:13;;;;;;;5.68;2.83;;;11.60;53.90;;;;;;4996306;28;20026;-73
2023/03/14 00:08:42;;;;;;;4.93;3.10;;;11.60;53.90;;;;;;4993917;28;20100;-73
2023/03/14 00:11:17;;;;;;;8.50;3.03;;;11.60;53.80;;;;;;4996111;28;20503;-73
2023/03/14 00:13:47;;;;;;;6.20;3.10;;;11.60;53.90;;;;;;4995669;28;20041;-72
2023/03/14 00:16:14;;;;;;;6.40;3.17;;;11.60;54.70;;;;;;4996281;28;20098;-73
2023/03/14 00:18:41;;;;;;;8.15;3.25;;;11.50;54.90;;;;;;4995965;28;20034;-73
2023/03/14 00:21:09;;;;;;;6.05;2.95;;;11.50;55.00;;;;;;4996008;28;20023;-73
2023/03/14 00:23:37;;;;;;;11.70;4.13;;;11.50;55.00;;;;;;4995675;28;20038;-73
2023/03/14 00:26:09;;;;;;;8.23;3.20;;;11.50;54.90;;;;;;4995873;28;20029;-73
2023/03/14 00:28:36;;;;;;;5.43;2.75;;;11.50;54.80;;;;;;4996103;28;20027;-73
2023/03/14 00:31:06;;;;;;;5.80;3.00;;;11.60;54.80;;;;;;4995771;28;20023;-73
2023/03/14 00:33:32;;;;;;;4.28;2.60;;;11.60;54.70;;;;;;4996089;28;20081;-73
2023/03/14 00:36:00;;;;;;;6.68;2.53;;;11.60;54.60;;;;;;4995768;28;20427;-73
2023/03/14 00:38:26;;;;;;;7.38;2.65;;;11.60;54.70;;;;;;4995684;28;20121;-73
2023/03/14 00:40:53;;;;;;;4.90;2.55;;;11.60;54.80;;;;;;4995487;28;20453;-73
2023/03/14 00:43:23;;;;;;;5.07;2.50;;;11.60;54.90;;;;;;4995832;28;20468;-73
2023/03/14 00:45:50;;;;;;;6.10;2.80;;;11.60;54.80;;;;;;4995668;28;20022;-73
2023/03/14 00:48:17;;;;;;;7.63;2.50;;;11.60;54.60;;;;;;4995609;28;20026;-72
2023/03/14 00:50:43;;;;;;;7.03;2.42;;;11.60;54.50;;;;;;4995564;28;20097;-73
2023/03/14 00:53:09;;;;;;;6.40;2.35;;;11.70;54.60;;;;;;4995779;28;20114;-73
2023/03/14 00:55:38;;;;;;;5.63;2.53;;;11.70;54.60;;;;;;4996278;28;20030;-73
2023/03/14 00:58:04;;;;;;;4.00;2.22;;;11.70;54.30;;;;;;4994209;28;20026;-73
2023/03/14 01:00:30;;;;;;;6.50;2.28;;;11.70;54.20;;;;;;4995419;28;20053;-74
2023/03/14 01:02:56;;;;;;;10.52;4.60;;;11.70;54.30;;;;;;4995541;28;20035;-73
2023/03/14 01:05:23;;;;;;;5.53;2.58;;;11.80;54.30;;;;;;4995565;28;20034;-73
2023/03/14 01:07:49;;;;;;;10.20;2.60;;;11.80;54.30;;;;;;4995258;28;20026;-73
2023/03/14 01:10:15;;;;;;;6.72;2.83;;;11.80;54.30;;;;;;4995123;28;20018;-73
2023/03/14 01:12:40;;;;;;;5.75;3.33;;;11.80;54.30;;;;;;4995398;28;20109;-73
2023/03/14 01:15:07;;;;;;;4.00;2.67;;;11.80;54.40;;;;;;4994975;28;20053;-74
2023/03/14 01:17:33;;;;;;;6.43;3.10;;;11.80;54.50;;;;;;4995070;28;20030;-74
2023/03/14 01:20:00;;;;;;;9.52;2.83;;;11.80;54.50;;;;;;4994844;28;20365;-73
2023/03/14 01:22:26;;;;;;;5.72;2.63;;;11.80;54.40;;;;;;4993593;28;20038;-74
2023/03/14 01:24:51;;;;;;;6.60;3.25;;;11.80;54.40;;;;;;4994886;28;20023;-73
2023/03/14 01:27:18;;;;;;;8.32;3.35;;;11.80;54.50;;;;;;4993858;28;20487;-73
2023/03/14 01:29:44;;;;;;;8.80;2.92;;;11.90;54.50;;;;;;4995114;28;20027;-73
2023/03/14 01:32:09;;;;;;;4.80;2.83;;;11.90;54.50;;;;;;4995070;28;20033;-73
2023/03/14 01:34:35;;;;;;;6.00;3.20;;;11.90;54.40;;;;;;4995217;28;20518;-72
2023/03/14 01:37:01;;;;;;;7.28;3.03;;;11.90;54.30;;;;;;5013112;28;20387;-72
2023/03/14 01:39:28;;;;;;;3.38;2.33;;;11.90;54.20;;;;;;5014282;28;20050;-73
2023/03/14 01:41:54;;;;;;;9.15;2.63;;;11.90;54.10;;;;;;5014113;28;20101;-73
2023/03/14 01:44:20;;;;;;;4.28;2.35;;;11.90;54.10;;;;;;5014175;28;20105;-73
2023/03/14 01:46:46;;;;;;;3.55;2.30;;;11.90;54.10;;;;;;5014431;28;20049;-73
2023/03/14 01:49:34;;;;;;;5.95;2.63;;;11.90;54.00;;;;;;5014123;28;20065;-72
2023/03/14 01:52:24;;;;;;;8.20;2.53;;;11.90;54.00;;;;;;5014042;28;20026;-73
2023/03/14 01:54:58;;;;;;;6.03;3.17;;;11.90;54.00;;;;;;5014109;28;20018;-73
2023/03/14 01:57:31;;;;;;;11.27;3.90;;;11.90;54.10;;;;;;4995634;28;20022;-73
2023/03/14 02:00:19;;;;;;;7.90;4.07;;;11.90;54.30;;;;;;4993215;28;20061;-72
2023/03/14 02:02:58;;;;;;;7.50;3.00;;;11.90;54.40;;;;;;4994154;28;20022;-73
2023/03/14 02:05:28;;;;;;;4.22;2.95;;;11.90;54.50;;;;;;4994505;28;20352;-73
2023/03/14 02:07:56;;;;;;;6.35;2.95;;;11.90;54.50;;;;;;4994222;28;20019;-73
2023/03/14 02:10:26;;;;;;;6.45;3.22;;;11.90;54.50;;;;;;4994133;28;20483;-73
2023/03/14 02:12:55;;;;;;;8.75;2.90;;;11.90;54.50;;;;;;4993983;28;20065;-73
2023/03/14 02:15:21;;;;;;;4.85;2.83;;;11.80;54.40;;;;;;4994409;28;20431;-73
2023/03/14 02:17:47;;;;;;;5.78;3.45;;;11.90;54.40;;;;;;4994039;28;20034;-72
2023/03/14 02:20:22;;;;;;;5.60;3.60;;;11.80;54.50;;;;;;4993999;28;20030;-72
2023/03/14 02:22:48;;;;;;;5.00;2.90;;;11.80;54.40;;;;;;4993890;28;20034;-73
2023/03/14 02:25:31;;;;;;;6.18;2.65;;;11.80;54.50;;;;;;4994012;28;20177;-73
2023/03/14 02:27:58;;;;;;;6.15;3.15;;;11.80;54.60;;;;;;4994248;28;20014;-73
2023/03/14 02:30:27;;;;;;;3.95;2.40;;;11.80;54.50;;;;;;4994216;28;20027;-73
2023/03/14 02:32:59;;;;;;;6.00;2.92;;;11.80;54.50;;;;;;4996364;28;20121;-73
2023/03/14 02:35:29;;;;;;;8.40;3.22;;;11.70;54.50;;;;;;4998555;28;20022;-73
2023/03/14 02:38:05;;;;;;;8.98;3.40;;;11.70;54.70;;;;;;4997926;28;20074;-73
2023/03/14 02:40:31;;;;;;;6.03;3.22;;;11.70;54.90;;;;;;4998009;28;20022;-72
2023/03/14 02:42:56;;;;;;;4.85;2.92;;;11.70;55.00;;;;;;4997807;28;20037;-73
2023/03/14 02:45:22;;;;;;;6.13;3.25;;;11.70;55.10;;;;;;4997824;28;20407;-72
2023/03/14 02:47:59;;;;;;;7.28;3.40;;;11.70;55.40;;;;;;4997693;28;20496;-72
2023/03/14 02:50:29;;;;;;;8.60;3.33;;;11.70;55.20;;;;;;4998280;28;20023;-73
2023/03/14 02:52:54;;;;;;;6.30;3.58;;;11.70;55.20;;;;;;4997700;28;20491;-72
2023/03/14 02:55:22;;;;;;;6.07;3.67;;;11.70;55.20;;;;;;5001392;28;20026;-72
2023/03/14 02:57:47;;;;;;;8.40;2.83;;;11.70;55.20;;;;;;5024560;28;20044;-73
2023/03/14 03:00:14;;;;;;;5.75;3.28;;;11.60;55.50;;;;;;5036920;28;20033;-72
2023/03/14 03:02:40;;;;;;;7.15;3.33;;;11.60;55.30;;;;;;5036762;28;20539;-73
2023/03/14 03:05:06;;;;;;;5.95;3.22;;;11.70;55.40;;;;;;5036820;28;20077;-72
2023/03/14 03:07:32;;;;;;;10.75;3.03;;;11.70;55.40;;;;;;5037304;28;20036;-71
2023/03/14 03:09:58;;;;;;;5.55;2.88;;;11.70;55.30;;;;;;5021721;28;20034;-71
2023/03/14 03:12:24;;;;;;;6.95;2.85;;;11.70;55.20;;;;;;4997821;28;20094;-72
2023/03/14 03:14:50;;;;;;;4.93;2.63;;;11.70;55.20;;;;;;4996840;28;20146;-72
2023/03/14 03:17:16;;;;;;;5.18;2.80;;;11.70;55.20;;;;;;4997175;28;20026;-72
2023/03/14 03:19:42;;;;;;;4.93;2.60;;;11.80;55.20;;;;;;4997141;28;20073;-72
2023/03/14 03:22:08;;;;;;;4.47;2.80;;;11.70;55.10;;;;;;4997263;28;20468;-72
2023/03/14 03:24:33;;;;;;;6.10;3.38;;;11.80;55.10;;;;;;4997368;28;20022;-72
2023/03/14 03:26:59;;;;;;;6.72;2.92;;;11.80;55.10;;;;;;4997383;28;20368;-72
2023/03/14 03:29:25;;;;;;;4.38;2.83;;;11.80;55.00;;;;;;4996994;28;20137;-73
2023/03/14 03:31:51;;;;;;;8.45;3.53;;;11.80;54.90;;;;;;4997209;28;20026;-72
2023/03/14 03:34:17;;;;;;;7.25;3.22;;;11.80;55.00;;;;;;4997152;28;20476;-72
2023/03/14 03:36:43;;;;;;;6.15;2.90;;;11.80;55.60;;;;;;5013358;28;20030;-72
2023/03/14 03:39:09;;;;;;;7.35;2.80;;;11.80;55.10;;;;;;5016620;28;20464;-72
2023/03/14 03:41:35;;;;;;;4.78;2.80;;;11.80;55.20;;;;;;5016465;28;20037;-72
2023/03/14 03:44:00;;;;;;;6.00;3.20;;;11.80;55.30;;;;;;5016440;28;20030;-73
2023/03/14 03:46:26;;;;;;;5.72;2.85;;;11.80;55.40;;;;;;5016203;28;20376;-72
2023/03/14 03:48:57;;;;;;;4.55;2.80;;;11.90;55.50;;;;;;5016230;28;20072;-72
2023/03/14 03:51:22;;;;;;;4.55;2.65;;;11.90;55.50;;;;;;5016144;28;20076;-72
2023/03/14 03:53:48;;;;;;;4.72;2.80;;;11.90;55.50;;;;;;5016134;28;20412;-72
2023/03/14 03:56:14;;;;;;;3.88;2.60;;;11.90;55.50;;;;;;5005333;28;20499;-72
2023/03/14 03:58:41;;;;;;;7.60;3.08;;;12.00;55.50;;;;;;4996954;28;20081;-72
2023/03/14 04:01:08;;;;;;;9.10;3.13;;;12.00;55.50;;;;;;4996707;28;20101;-71
2023/03/14 04:03:34;;;;;;;4.57;2.88;;;12.10;55.50;;;;;;4996304;28;20037;-72
2023/03/14 04:06:02;;;;;;;6.40;3.08;;;12.10;55.40;;;;;;4996370;28;20382;-72
2023/03/14 04:08:28;;;;;;;9.60;3.55;;;12.20;55.50;;;;;;4996165;28;20024;-72
2023/03/14 04:10:58;;;;;;;6.43;3.17;;;12.20;55.50;;;;;;4996445;28;20019;-72
2023/03/14 04:13:25;;;;;;;6.07;3.10;;;12.20;55.50;;;;;;4996008;28;20391;-72
2023/03/14 04:15:51;;;;;;;5.90;3.05;;;12.30;55.60;;;;;;4996638;28;20415;-73
2023/03/14 04:18:17;;;;;;;8.90;3.08;;;12.30;55.50;;;;;;4996022;28;20053;-72
2023/03/14 04:20:43;;;;;;;5.82;3.00;;;12.40;55.50;;;;;;4996017;28;20488;-72
2023/03/14 04:23:09;;;;;;;11.35;3.33;;;12.40;55.40;;;;;;4995844;28;20022;-72
2023/03/14 04:25:35;;;;;;;13.52;2.60;;;12.40;55.40;;;;;;4996313;28;20145;-73
2023/03/14 04:28:03;;;;;;;9.15;3.17;;;12.50;55.30;;;;;;4995675;28;20065;-73
2023/03/14 04:30:29;;;;;;;4.93;2.67;;;12.50;55.30;;;;;;4995889;28;20065;-73
2023/03/14 04:32:54;;;;;;;4.90;2.92;;;12.60;55.30;;;;;;4995687;28;20472;-72
2023/03/14 04:35:20;;;;;;;10.27;3.83;;;12.60;55.20;;;;;;4996256;28;20059;-72
2023/03/14 04:37:48;;;;;;;5.90;3.05;;;12.70;55.10;;;;;;4994442;28;20034;-73
2023/03/14 04:40:15;;;;;;;8.05;3.20;;;12.70;55.00;;;;;;4994358;28;20034;-72
2023/03/14 04:42:41;;;;;;;5.07;3.30;;;12.80;55.10;;;;;;4995505;28;20029;-72
2023/03/14 04:45:08;;;;;;;4.15;2.60;;;12.70;55.00;;;;;;4995489;28;20031;-73
2023/03/14 04:47:34;;;;;;;6.68;2.90;;;12.80;55.10;;;;;;4995433;28;20030;-72
2023/03/14 04:50:00;;;;;;;3.72;2.55;;;12.80;55.00;;;;;;4995374;28;20504;-72
2023/03/14 04:52:26;;;;;;;7.38;2.80;;;12.80;55.10;;;;;;4995381;28;20038;-72
2023/03/14 04:54:55;;;;;;;4.88;2.67;;;12.80;55.10;;;;;;4995136;28;20026;-72
2023/03/14 04:57:21;;;;;;;4.57;2.78;;;12.80;55.20;;;;;;4995799;28;20027;-73
2023/03/14 04:59:47;;;;;;;8.18;3.08;;;12.80;55.20;;;;;;4995042;28;20034;-72
2023/03/14 05:02:12;;;;;;;5.13;3.00;;;12.70;55.10;;;;;;4995002;28;20061;-73
2023/03/14 05:04:38;;;;;;;7.53;3.35;;;12.70;55.20;;;;;;4993688;28;20053;-72
2023/03/14 05:07:04;;;;;;;9.40;3.33;;;12.80;55.60;;;;;;4995257;28;20109;-72
2023/03/14 05:09:30;;;;;;;8.43;3.83;;;12.80;55.90;;;;;;4995020;28;20033;-72
2023/03/14 05:11:55;;;;;;;7.78;3.83;;;12.80;56.10;;;;;;4994915;28;20027;-73
2023/03/14 05:14:21;;;;;;;5.82;2.85;;;12.80;56.20;;;;;;4994719;28;20129;-72
2023/03/14 05:16:47;;;;;;;5.90;2.80;;;12.80;56.40;;;;;;4995096;28;20030;-72
2023/03/14 05:19:13;;;;;;;7.57;3.75;;;12.80;56.80;;;;;;4994751;28;20022;-72
2023/03/14 05:21:38;;;;;;;7.20;2.63;;;12.80;56.90;;;;;;4994739;28;20022;-73
2023/03/14 05:24:05;;;;;;;10.35;3.42;;;12.70;57.00;;;;;;4994574;28;20157;-72
2023/03/14 05:26:30;;;;;;;6.55;3.10;;;12.70;57.20;;;;;;4994394;28;20388;-72
2023/03/14 05:28:56;;;;;;;6.60;3.53;;;12.70;57.20;;;;;;4994637;28;20026;-72
2023/03/14 05:31:22;;;;;;;9.88;4.80;;;12.70;57.60;;;;;;4994513;28;20022;-73
2023/03/14 05:33:48;;;;;;;14.10;5.63;;;12.70;58.10;;;;;;4994432;28;20088;-72
2023/03/14 05:36:13;;;;;;;9.07;4.40;;;12.70;58.20;;;;;;4994138;28;20037;-72
2023/03/14 05:38:39;;;;;;;8.63;5.00;;;12.70;58.90;;;;;;4994969;28;20109;-72
2023/03/14 05:41:05;;;;;;;9.55;4.60;;;12.60;58.70;;;;;;4994291;28;20028;-72
2023/03/14 05:43:31;;;;;;;12.05;4.03;;;12.60;58.70;;;;;;4994551;28;20426;-72
2023/03/14 05:45:57;;;;;;;10.75;4.93;;;12.60;58.90;;;;;;4994261;28;20027;-73
2023/03/14 05:48:23;;;;;;;7.78;4.55;;;12.60;59.30;;;;;;4994331;28;20491;-72
2023/03/14 05:50:55;;;;;;;9.88;4.57;;;12.60;59.50;;;;;;4994573;28;20014;-72
2023/03/14 05:53:20;;;;;;;7.97;4.40;;;12.60;59.70;;;;;;4993006;28;20030;-72
2023/03/14 05:55:46;;;;;;;21.90;12.10;;;12.60;59.60;;;;;;4994531;28;20034;-72
2023/03/14 05:58:12;;;;;;;20.40;12.23;;;12.60;59.70;;;;;;4994097;28;20091;-72
2023/03/14 06:00:38;;;;;;;16.75;8.40;;;12.60;60.10;;;;;;4992783;28;20033;-72
2023/03/14 06:03:03;;;;;;;13.63;6.45;;;12.60;60.20;;;;;;4994279;28;20041;-72
2023/03/14 06:05:29;;;;;;;8.88;5.85;;;12.60;60.50;;;;;;4993891;28;20102;-72
2023/03/14 06:07:55;;;;;;;11.50;7.60;;;12.60;60.60;;;;;;4993140;28;20491;-72
2023/03/14 06:10:21;;;;;;;9.73;5.10;;;12.70;60.70;;;;;;4994294;28;20033;-72
2023/03/14 06:12:47;;;;;;;8.18;4.22;;;12.70;60.80;;;;;;4993805;28;20543;-72
2023/03/14 06:15:13;;;;;;;16.90;4.05;;;12.70;60.90;;;;;;4993676;28;20132;-72
2023/03/14 06:17:38;;;;;;;8.95;3.90;;;12.70;60.90;;;;;;4993933;28;20388;-72
2023/03/14 06:20:04;;;;;;;6.07;3.35;;;12.80;61.10;;;;;;4993666;28;20034;-73
2023/03/14 06:22:30;;;;;;;9.00;4.03;;;12.80;61.20;;;;;;4993458;28;20058;-72
2023/03/14 06:24:56;;;;;;;14.90;5.72;;;12.80;61.40;;;;;;4993787;28;20069;-72
2023/03/14 06:27:22;;;;;;;8.00;4.72;;;12.80;61.90;;;;;;4993666;28;20018;-73
2023/03/14 06:29:47;;;;;;;7.85;4.60;;;12.80;61.90;;;;;;4994055;28;20022;-72
2023/03/14 06:32:13;;;;;;;7.57;4.00;;;12.80;62.10;;;;;;4993339;28;20387;-72
2023/03/14 06:34:40;;;;;;;6.82;3.75;;;12.90;62.30;;;;;;4993820;28;20677;-72
2023/03/14 06:37:06;;;;;;;7.05;4.38;;;12.90;62.40;;;;;;4993395;28;20069;-73
2023/03/14 06:39:32;;;;;;;6.82;4.03;;;13.10;62.60;;;;;;4993704;28;20472;-73
2023/03/14 06:41:58;;;;;;;8.88;3.92;;;13.10;62.30;;;;;;4993438;28;20081;-72
2023/03/14 06:44:24;;;;;;;5.78;3.60;;;13.20;62.10;;;;;;4993208;28;20484;-73
2023/03/14 06:46:50;;;;;;;8.65;4.00;;;13.30;62.00;;;;;;4992253;28;20023;-73
2023/03/14 06:49:16;;;;;;;7.72;3.35;;;13.30;61.80;;;;;;4993846;28;20034;-72
2023/03/14 06:51:42;;;;;;;8.07;4.13;;;13.40;61.70;;;;;;4993545;28;20026;-73
2023/03/14 06:54:08;;;;;;;10.00;4.00;;;13.40;61.60;;;;;;4993466;28;20439;-73
2023/03/14 06:56:33;;;;;;;10.95;4.60;;;13.50;61.50;;;;;;5000697;28;20057;-74
2023/03/14 06:58:59;;;;;;;9.23;4.93;;;13.50;61.50;;;;;;4992866;28;20117;-74
2023/03/14 07:01:27;;;;;;;9.20;4.70;;;13.50;61.50;;;;;;4994536;28;20526;-73
2023/03/14 07:03:53;;;;;;;7.53;5.07;;;13.60;61.50;;;;;;5008932;28;20034;-73
2023/03/14 07:06:19;;;;;;;12.40;5.07;;;13.60;61.50;;;;;;4993495;28;20049;-73
2023/03/14 07:08:45;;;;;;;11.55;4.88;;;13.60;61.50;;;;;;4993118;28;20031;-72
2023/03/14 07:11:12;;;;;;;8.40;4.57;;;13.60;61.70;;;;;;4992597;28;20049;-72
2023/03/14 07:13:41;;;;;;;6.40;4.03;;;13.60;61.80;;;;;;4992681;28;20128;-72
2023/03/14 07:16:08;;;;;;;5.30;3.53;;;13.60;61.80;;;;;;4993194;28;20033;-72
2023/03/14 07:18:34;;;;;;;14.00;4.55;;;13.70;61.80;;;;;;4999873;28;20435;-72
2023/03/14 07:20:59;;;;;;;10.43;4.55;;;13.70;61.80;;;;;;5015091;28;20033;-72
2023/03/14 07:23:25;;;;;;;7.65;4.40;;;13.70;61.80;;;;;;5016446;28;20386;-72
2023/03/14 07:25:53;;;;;;;9.98;4.35;;;13.80;61.80;;;;;;5014521;28;20382;-72
2023/03/14 07:28:19;;;;;;;11.00;5.30;;;13.80;61.80;;;;;;5015916;28;20026;-73
2023/03/14 07:30:47;;;;;;;13.55;5.18;;;13.90;61.90;;;;;;5012869;28;20061;-72
2023/03/14 07:33:13;;;;;;;9.50;5.32;;;13.90;62.70;;;;;;5007358;28;20045;-73
2023/03/14 07:35:39;;;;;;;11.30;4.75;;;14.00;61.80;;;;;;5015876;28;20064;-73
2023/03/14 07:38:04;;;;;;;9.50;4.78;;;14.00;61.70;;;;;;5016138;28;20448;-72
2023/03/14 07:40:30;;;;;;;5.60;3.95;;;14.10;61.60;;;;;;5016155;28;20033;-72
2023/03/14 07:42:57;;;;;;;7.97;4.40;;;14.10;61.40;;;;;;5014499;28;20030;-72
2023/03/14 07:45:22;;;;;;;7.85;4.45;;;14.10;61.20;;;;;;5014651;28;20475;-72
2023/03/14 07:47:48;;;;;;;11.90;4.90;;;14.10;61.10;;;;;;5016038;28;20022;-72
2023/03/14 07:50:14;;;;;;;8.63;4.55;;;14.10;60.90;;;;;;5003846;28;20079;-73
2023/03/14 07:52:40;;;;;;;11.13;4.85;;;14.10;60.80;;;;;;4994967;28;20034;-73
2023/03/14 07:55:06;;;;;;;7.25;3.80;;;14.10;60.80;;;;;;4997478;28;20034;-73
2023/03/14 07:57:33;;;;;;;8.00;3.45;;;14.10;60.90;;;;;;5011443;28;20101;-73
2023/03/14 07:59:59;;;;;;;7.78;4.20;;;14.10;60.90;;;;;;5035725;28;20480;-72
2023/03/14 08:02:25;;;;;;;8.38;4.60;;;14.10;60.80;;;;;;5020559;28;20030;-73
2023/03/14 08:04:51;;;;;;;8.57;4.40;;;14.10;61.00;;;;;;4996181;28;20069;-73
2023/03/14 08:07:17;;;;;;;6.70;3.63;;;14.00;61.40;;;;;;4996598;28;20026;-72
2023/03/14 08:09:43;;;;;;;6.90;2.83;;;14.00;61.70;;;;;;4996393;28;20106;-73
2023/03/14 08:12:09;;;;;;;8.50;3.83;;;14.00;61.70;;;;;;5014531;28;20040;-73
2023/03/14 08:14:35;;;;;;;9.27;3.30;;;14.00;62.10;;;;;;5015246;28;20454;-74
2023/03/14 08:17:01;;;;;;;5.95;2.50;;;14.00;62.20;;;;;;4998251;28;20522;-74
2023/03/14 08:19:30;;;;;;;4.97;2.05;;;14.00;62.60;;;;;;4996246;28;20472;-74
2023/03/14 08:21:56;;;;;;;3.17;1.90;;;14.00;63.10;;;;;;4995585;28;20050;-73
2023/03/14 08:24:22;;;;;;;3.30;1.85;;;14.00;63.00;;;;;;5016740;28;20041;-73
2023/03/14 08:26:47;;;;;;;5.00;3.08;;;14.00;63.00;;;;;;4999603;28;20062;-73
2023/03/14 08:29:13;;;;;;;12.32;6.72;;;14.10;63.20;;;;;;5020419;28;20022;-74
2023/03/14 08:31:39;;;;;;;6.00;2.97;;;14.10;63.70;;;;;;5003862;28;20053;-73
2023/03/14 08:34:06;;;;;;;1.70;1.23;;;14.20;63.90;;;;;;5009320;28;20030;-73
2023/03/14 08:36:33;;;;;;;6.57;2.42;;;14.20;64.20;;;;;;4999285;28;20392;-73
2023/03/14 08:38:59;;;;;;;3.13;2.25;;;14.20;64.00;;;;;;4994182;28;20022;-71
2023/03/14 08:41:24;;;;;;;9.07;3.25;;;14.20;63.80;;;;;;4994204;28;20551;-74
2023/03/14 08:43:50;;;;;;;5.57;2.45;;;14.20;63.60;;;;;;4995419;28;20483;-73
2023/03/14 08:46:16;;;;;;;2.88;1.67;;;14.30;63.90;;;;;;4994089;28;20030;-74
2023/03/14 08:48:42;;;;;;;5.78;1.50;;;14.30;64.20;;;;;;4999770;28;20388;-73
2023/03/14 08:51:13;;;;;;;3.13;1.42;;;14.30;64.00;;;;;;5014720;28;20021;-73
2023/03/14 08:53:39;;;;;;;4.10;1.30;;;14.30;64.00;;;;;;5013099;28;20049;-73
2023/03/14 08:56:06;;;;;;;4.15;1.23;;;14.30;63.70;;;;;;4997329;28;20034;-72
2023/03/14 08:58:33;;;;;;;4.05;1.13;;;14.30;63.50;;;;;;5014912;28;20475;-73
2023/03/14 09:00:59;;;;;;;3.03;1.50;;;14.30;63.40;;;;;;5012590;28;20026;-73
2023/03/14 09:03:25;;;;;;;2.53;1.02;;;14.30;63.50;;;;;;4994766;28;20061;-73
2023/03/14 09:05:52;;;;;;;5.68;1.30;;;14.30;63.60;;;;;;4994778;28;20145;-73
2023/03/14 09:08:18;;;;;;;4.57;1.20;;;14.20;63.10;;;;;;4994817;28;20034;-73
2023/03/14 09:10:44;;;;;;;5.18;1.75;;;14.20;63.00;;;;;;4994914;28;20384;-72
2023/03/14 09:13:10;;;;;;;6.38;1.50;;;14.20;63.10;;;;;;4993517;28;20121;-73
2023/03/14 09:15:36;;;;;;;1.42;0.70;;;14.20;63.10;;;;;;4993771;28;20484;-73
2023/03/14 09:18:02;;;;;;;4.60;1.17;;;14.20;63.00;;;;;;4995027;28;20022;-74
2023/03/14 09:20:28;;;;;;;1.75;0.82;;;14.20;62.20;;;;;;4995011;28;20472;-73
2023/03/14 09:22:54;;;;;;;2.17;0.70;;;14.20;62.40;;;;;;4995221;28;20092;-73
2023/03/14 09:25:19;;;;;;;2.10;0.70;;;14.20;62.10;;;;;;4995805;28;20041;-72
2023/03/14 09:27:45;;;;;;;2.30;1.00;;;14.10;61.80;;;;;;4994890;28;20482;-73
2023/03/14 09:30:11;;;;;;;1.73;0.50;;;14.10;62.30;;;;;;4994675;28;20027;-72
2023/03/14 09:32:37;;;;;;;1.67;0.73;;;14.20;62.60;;;;;;4994706;28;20027;-72
2023/03/14 09:35:04;;;;;;;1.73;0.90;;;14.10;62.70;;;;;;4994538;28;20026;-73
2023/03/14 09:37:29;;;;;;;4.82;1.08;;;14.10;62.40;;;;;;4992964;28;20065;-72
2023/03/14 09:39:55;;;;;;;3.22;1.00;;;14.10;62.70;;;;;;4994424;28;20054;-73
2023/03/14 09:42:27;;;;;;;3.30;1.17;;;14.00;63.10;;;;;;4992952;28;20451;-72
2023/03/14 09:44:57;;;;;;;3.53;1.40;;;14.00;63.70;;;;;;4994665;28;20361;-72
2023/03/14 09:47:24;;;;;;;2.38;0.77;;;14.00;64.00;;;;;;4993220;28;20050;-73
2023/03/14 09:49:50;;;;;;;2.83;1.15;;;13.90;63.70;;;;;;4993126;28;20033;-73
2023/03/14 09:52:24;;;;;;;3.15;1.13;;;13.90;63.90;;;;;;4994391;28;20101;-73
2023/03/14 09:54:58;;;;;;;3.45;1.40;;;13.80;64.20;;;;;;4995123;28;20018;-72
2023/03/14 09:57:25;;;;;;;2.85;1.55;;;13.80;64.40;;;;;;4994744;28;20164;-72
2023/03/14 09:59:55;;;;;;;2.97;1.33;;;13.70;64.50;;;;;;4994238;28;20046;-72
2023/03/14 10:02:31;;;;;;;4.97;1.48;;;13.70;64.80;;;;;;4994180;28;20046;-72
2023/03/14 10:04:57;;;;;;;3.50;1.20;;;13.70;65.20;;;;;;4992793;28;20076;-72
2023/03/14 10:07:31;;;;;;;1.52;1.05;;;13.80;65.30;;;;;;4994221;28;20427;-72
2023/03/14 10:09:57;;;;;;;5.68;1.60;;;13.80;65.40;;;;;;4994791;28;20109;-73
2023/03/14 10:12:34;;;;;;;2.97;1.02;;;13.80;65.40;;;;;;4992923;28;20030;-72
2023/03/14 10:15:10;;;;;;;4.78;1.23;;;13.70;65.00;;;;;;4992629;28;20053;-72
2023/03/14 10:17:46;;;;;;;3.45;1.55;;;13.80;65.20;;;;;;4994342;28;20109;-72
2023/03/14 10:20:35;;;;;;;4.20;1.25;;;13.80;65.30;;;;;;4992809;28;20105;-71
2023/03/14 10:23:23;;;;;;;5.05;1.50;;;13.80;65.20;;;;;;4993962;28;20488;-72
2023/03/14 10:26:15;;;;;;;3.60;1.58;;;13.80;64.80;;;;;;4993995;28;20027;-72
2023/03/14 10:29:12;;;;;;;8.63;1.50;;;13.90;64.70;;;;;;4994306;28;20100;-72
2023/03/14 10:32:03;;;;;;;3.72;2.03;;;13.90;64.90;;;;;;4993403;28;20392;-72
2023/03/14 10:34:32;;;;;;;2.33;1.20;;;13.90;64.70;;;;;;4989129;28;20057;-73
2023/03/14 10:37:17;;;;;;;8.43;1.35;;;13.90;64.70;;;;;;4994092;28;20023;-72
2023/03/14 10:39:50;;;;;;;2.55;1.00;;;14.00;64.90;;;;;;5010277;28;20022;-72
2023/03/14 10:42:29;;;;;;;4.47;1.30;;;14.00;64.90;;;;;;5013931;28;20361;-71
2023/03/14 10:44:58;;;;;;;3.92;1.20;;;14.10;64.50;;;;;;5013544;28;20049;-72
2023/03/14 10:47:28;;;;;;;3.08;1.10;;;14.20;64.40;;;;;;5013359;28;20037;-72
2023/03/14 10:49:55;;;;;;;5.15;0.95;;;14.30;64.00;;;;;;5013365;28;20022;-71
2023/03/14 10:52:27;;;;;;;3.70;1.13;;;14.30;63.90;;;;;;5012214;28;20022;-72
2023/03/14 10:55:03;;;;;;;2.35;0.88;;;14.30;63.70;;;;;;5016448;28;20018;-72
2023/03/14 10:57:29;;;;;;;4.32;0.82;;;14.40;63.50;;;;;;4996225;28;20034;-73
2023/03/14 10:59:56;;;;;;;5.30;1.05;;;14.40;63.30;;;;;;4997476;28;20026;-73
2023/03/14 11:02:40;;;;;;;2.78;1.02;;;14.50;63.30;;;;;;4997771;28;20097;-73
2023/03/14 11:05:20;;;;;;;2.47;1.10;;;14.50;63.00;;;;;;4997691;28;20022;-73
2023/03/14 11:07:46;;;;;;;2.05;0.80;;;14.50;62.70;;;;;;4997550;28;20453;-73
2023/03/14 11:10:19;;;;;;;4.60;1.05;;;14.60;62.20;;;;;;4997363;28;20018;-73
2023/03/14 11:13:09;;;;;;;12.82;1.27;;;14.50;61.60;;;;;;4997421;28;20051;-73
2023/03/14 11:15:47;;;;;;;1.75;0.55;;;14.50;61.50;;;;;;4997176;28;20061;-73
2023/03/14 11:18:50;;;;;;;1.35;0.55;;;14.50;61.40;;;;;;4997310;28;20468;-74
2023/03/14 11:21:37;;;;;;;2.17;1.10;;;14.40;61.50;;;;;;4995870;28;20030;-73
2023/03/14 11:24:36;;;;;;;0.85;0.60;;;14.50;61.80;;;;;;4997133;28;20061;-73
2023/03/14 11:27:36;;;;;;;1.13;0.60;;;14.50;61.60;;;;;;5014593;28;20026;-74
2023/03/14 11:30:06;;;;;;;1.05;0.50;;;14.60;60.80;;;;;;5016723;28;20356;-73
2023/03/14 11:32:38;;;;;;;1.17;0.70;;;14.70;60.80;;;;;;5016734;28;20018;-73
2023/03/14 11:35:17;;;;;;;3.67;0.60;;;14.80;60.60;;;;;;5015238;28;20480;-73
2023/03/14 11:38:12;;;;;;;1.50;0.50;;;14.90;60.30;;;;;;5016714;28;20113;-73
2023/03/14 11:40:39;;;;;;;1.63;0.57;;;15.00;61.10;;;;;;5016754;28;20407;-73
2023/03/14 11:43:42;;;;;;;4.55;0.80;;;15.10;61.10;;;;;;5016385;28;20052;-72
2023/03/14 11:46:19;;;;;;;3.92;1.05;;;15.30;60.70;;;;;;4978479;28;20038;-73
2023/03/14 11:48:52;;;;;;;1.17;0.55;;;15.40;59.60;;;;;;4994777;28;20034;-73
2023/03/14 11:51:32;;;;;;;0.50;0.40;;;15.50;59.20;;;;;;4994613;28;20069;-73
2023/03/14 11:54:02;;;;;;;0.77;0.63;;;15.50;58.30;;;;;;4994865;28;20141;-72
2023/03/14 11:56:34;;;;;;;1.42;0.57;;;15.60;58.30;;;;;;4994010;28;20408;-73
2023/03/14 11:59:15;;;;;;;2.45;0.77;;;15.60;57.70;;;;;;4975299;28;20485;-73
2023/03/14 12:02:12;;;;;;;2.17;0.47;;;15.60;58.00;;;;;;4975223;28;20132;-73
2023/03/14 12:04:46;;;;;;;1.33;0.50;;;15.70;57.90;;;;;;4974201;28;20031;-73
2023/03/14 12:07:18;;;;;;;;;;;15.70;57.40;;;;;;4975304;28;20485;-73
2023/03/14 12:09:45;;;;;;;1.20;0.60;;;15.70;58.10;;;;;;4974993;28;19906;-73
2023/03/14 12:12:16;;;;;;;0.80;0.35;;;15.80;57.90;;;;;;4974671;28;20034;-72
2023/03/14 12:14:53;;;;;;;1.95;0.50;;;16.00;57.90;;;;;;4974583;28;20039;-73
2023/03/14 12:17:22;;;;;;;0.40;0.40;;;16.10;57.60;;;;;;4974753;28;20109;-73
2023/03/14 12:20:00;;;;;;;0.52;0.40;;;16.10;56.40;;;;;;4974568;28;20027;-72
2023/03/14 12:22:41;;;;;;;0.65;0.40;;;16.20;56.20;;;;;;5004780;28;20034;-72
2023/03/14 12:25:18;;;;;;;0.40;0.40;;;16.30;55.60;;;;;;4999968;28;20040;-73
2023/03/14 12:27:49;;;;;;;1.25;0.60;;;16.40;55.40;;;;;;5016063;28;20026;-73
2023/03/14 12:30:29;;;;;;;1.83;0.88;;;16.40;55.50;;;;;;5014312;28;20017;-72
2023/03/14 12:33:10;;;;;;;0.75;0.60;;;16.40;55.40;;;;;;5015377;28;20022;-72
2023/03/14 12:35:37;;;;;;;3.95;0.55;;;16.50;55.40;;;;;;5014437;28;20061;-72
2023/03/14 12:38:09;;;;;;;1.05;0.50;;;16.50;55.00;;;;;;5015310;28;20080;-71
2023/03/14 12:40:41;;;;;;;0.52;0.43;;;16.50;54.40;;;;;;5015400;28;20030;-71
2023/03/14 12:43:30;;;;;;;0.47;0.40;;;16.50;54.40;;;;;;5015252;28;20026;-72
2023/03/14 12:46:17;;;;;;;0.88;0.60;;;16.50;54.10;;;;;;5015188;28;20022;-72
2023/03/14 12:49:04;;;;;;;3.25;0.60;;;16.60;54.30;;;;;;5015272;28;20026;-72
2023/03/14 12:51:58;;;;;;;0.45;0.40;;;16.60;54.10;;;;;;5014865;28;20030;-72
2023/03/14 12:55:02;;;;;;;1.88;0.60;;;16.70;54.60;;;;;;5015109;28;20376;-72
2023/03/14 12:57:58;;;;;;;1.40;0.68;;;16.80;54.00;;;;;;4995493;28;20526;-72